createdAt,value
2019-04-14T00:02:11.717Z,95158.89
2019-04-14T00:04:46.571Z,95141.36
2019-04-14T00:07:18.747Z,95143.83
2019-04-14T00:09:50.175Z,95146.53
2019-04-14T00:12:21.149Z,95147.29
2019-04-14T00:14:53.287Z,95147.83
2019-04-14T00:17:24.423Z,95144.62
2019-04-14T00:19:56.598Z,95146.16
2019-04-14T00:22:29.534Z,95147.25
2019-04-14T00:25:00.506Z,95156.55
2019-04-14T00:27:32.380Z,95150.09
2019-04-14T00:30:04.036Z,95137.64
2019-04-14T00:32:43.032Z,95132.89
2019-04-14T00:35:34.212Z,95126.91
2019-04-14T00:38:17.197Z,95131.25
2019-04-14T00:41:13.693Z,95128.53
2019-04-14T00:43:55.586Z,95131.30
2019-04-14T00:46:34.193Z,95132.80
2019-04-14T00:49:07.070Z,95141.13
2019-04-14T00:51:39.367Z,95135.33
2019-04-14T00:54:11.053Z,95132.80
2019-04-14T00:56:43.355Z,95127.29
2019-04-14T00:59:15.648Z,95131.26
2019-04-14T01:01:46.686Z,95131.13
2019-04-14T01:04:18.737Z,95125.28
2019-04-14T01:06:51.182Z,95119.36
2019-04-14T01:09:22.410Z,95125.70
2019-04-14T01:11:53.392Z,95113.05
2019-04-14T01:14:25.559Z,95119.48
2019-04-14T01:16:57.934Z,95112.48
2019-04-14T01:19:29.086Z,95114.73
2019-04-14T01:22:01.042Z,95120.17
2019-04-14T01:24:33.658Z,95115.41
2019-04-14T01:27:06.036Z,95120.09
2019-04-14T01:29:38.376Z,95121.14
2019-04-14T01:32:11.218Z,95111.71
2019-04-14T01:34:43.407Z,95115.41
2019-04-14T01:37:15.818Z,95116.69
2019-04-14T01:39:48.107Z,95108.05
2019-04-14T01:42:20.236Z,95116.09
2019-04-14T01:44:52.422Z,95113.84
2019-04-14T01:47:24.882Z,95104.84
2019-04-14T01:49:57.287Z,95113.53
2019-04-14T01:52:38.394Z,95108.36
2019-04-14T01:55:28.782Z,95110.00
2019-04-14T01:58:07.864Z,95111.55
2019-04-14T02:01:10.519Z,95113.84
2019-04-14T02:03:43.346Z,95119.27
2019-04-14T02:06:15.675Z,95108.08
2019-04-14T02:08:47.718Z,95112.09
2019-04-14T02:11:19.019Z,95108.84
2019-04-14T02:13:50.882Z,95113.44
2019-04-14T02:16:32.255Z,95107.59
2019-04-14T02:18:56.890Z,95105.73
2019-04-14T02:21:28.345Z,95112.45
2019-04-14T02:24:00.481Z,95115.20
2019-04-14T02:26:32.877Z,95109.83
2019-04-14T02:29:04.161Z,95109.39
2019-04-14T02:32:00.907Z,95113.84
2019-04-14T02:34:48.042Z,95113.70
2019-04-14T02:37:12.223Z,95114.24
2019-04-14T02:39:48.232Z,95117.88
2019-04-14T02:42:26.035Z,95117.44
2019-04-14T02:44:45.767Z,95113.76
2019-04-14T02:47:39.299Z,95113.56
2019-04-14T02:49:50.774Z,95114.56
2019-04-14T03:00:07.863Z,95109.62
2019-04-14T03:05:01.919Z,95109.88
2019-04-14T03:10:18.196Z,95101.86
2019-04-14T03:12:48.533Z,95105.42
2019-04-14T03:15:15.571Z,95107.77
2019-04-14T03:18:24.524Z,95107.18
2019-04-14T03:21:21.388Z,95110.20
2019-04-14T03:24:07.057Z,95107.95
2019-04-14T03:26:45.009Z,95108.03
2019-04-14T03:32:14.219Z,95106.66
2019-04-14T03:34:42.374Z,95109.73
2019-04-14T03:39:39.027Z,95106.23
2019-04-14T03:42:08.680Z,95110.48
2019-04-14T03:44:41.917Z,95107.06
2019-04-14T03:47:21.691Z,95105.78
2019-04-14T03:52:27.618Z,95109.02
2019-04-14T03:54:45.501Z,95113.50
2019-04-14T03:56:59.818Z,95118.55
2019-04-14T03:59:32.309Z,95119.17
2019-04-14T04:02:03.390Z,95118.64
2019-04-14T04:04:34.372Z,95127.00
2019-04-14T04:07:06.210Z,95128.08
2019-04-14T04:09:46.162Z,95122.76
2019-04-14T04:12:18.292Z,95125.02
2019-04-14T04:14:49.287Z,95118.20
2019-04-14T04:17:34.047Z,95120.65
2019-04-14T04:20:20.228Z,95119.11
2019-04-14T04:23:09.576Z,95120.37
2019-04-14T04:25:48.688Z,95123.64
2019-04-14T04:28:40.641Z,95120.41
2019-04-14T04:31:32.793Z,95131.95
2019-04-14T04:34:09.902Z,95136.81
2019-04-14T04:36:53.143Z,95130.02
2019-04-14T04:39:33.776Z,95128.52
2019-04-14T04:42:04.814Z,95134.05
2019-04-14T04:44:35.892Z,95132.48
2019-04-14T04:47:07.760Z,95135.70
2019-04-14T04:49:38.793Z,95140.40
2019-04-14T04:52:11.421Z,95144.11
2019-04-14T04:54:42.814Z,95147.70
2019-04-14T04:57:13.918Z,95159.92
2019-04-14T04:59:45.288Z,95155.17
2019-04-14T05:02:17.619Z,95153.90
2019-04-14T05:04:50.566Z,95160.14
2019-04-14T05:07:23.164Z,95166.75
2019-04-14T05:10:19.577Z,95167.77
2019-04-14T05:13:03.032Z,95166.00
2019-04-14T05:15:59.860Z,95170.70
2019-04-14T05:18:31.302Z,95176.31
2019-04-14T05:21:02.377Z,95176.19
2019-04-14T05:23:34.252Z,95173.14
2019-04-14T05:26:05.359Z,95184.70
2019-04-14T05:28:37.310Z,95186.22
2019-04-14T05:31:09.777Z,95188.06
2019-04-14T05:33:40.802Z,95186.89
2019-04-14T05:36:12.848Z,95188.16
2019-04-14T05:38:44.918Z,95187.52
2019-04-14T05:41:16.013Z,95186.95
2019-04-14T05:43:52.128Z,95188.92
2019-04-14T05:46:20.714Z,95191.48
2019-04-14T05:48:51.928Z,95188.01
2019-04-14T05:51:24.512Z,95183.56
2019-04-14T05:53:56.561Z,95179.84
2019-04-14T05:56:27.849Z,95181.78
2019-04-14T05:59:00.042Z,95187.12
2019-04-14T06:01:31.586Z,95183.86
2019-04-14T06:04:02.542Z,95190.31
2019-04-14T06:06:33.507Z,95189.70
2019-04-14T06:09:06.422Z,95194.75
2019-04-14T06:11:37.658Z,95195.63
2019-04-14T06:14:08.714Z,95195.19
2019-04-14T06:16:39.712Z,95194.86
2019-04-14T06:19:10.771Z,95201.47
2019-04-14T06:21:41.854Z,95204.41
2019-04-14T06:24:12.844Z,95204.45
2019-04-14T06:26:44.151Z,95202.04
2019-04-14T06:29:15.266Z,95208.73
2019-04-14T06:32:03.453Z,95201.07
2019-04-14T06:34:49.118Z,95198.64
2019-04-14T06:37:35.537Z,95195.10
2019-04-14T06:40:07.344Z,95201.21
2019-04-14T06:42:38.347Z,95200.92
2019-04-14T06:45:10.757Z,95199.10
2019-04-14T06:47:42.848Z,95199.17
2019-04-14T06:50:13.966Z,95207.41
2019-04-14T06:52:44.943Z,95197.59
2019-04-14T06:55:15.897Z,95199.69
2019-04-14T06:57:46.911Z,95203.31
2019-04-14T07:00:17.986Z,95202.02
2019-04-14T07:02:48.989Z,95196.80
2019-04-14T07:05:19.949Z,95200.72
2019-04-14T07:07:56.949Z,95200.98
2019-04-14T07:10:23.762Z,95189.70
2019-04-14T07:12:54.746Z,95190.75
2019-04-14T07:15:25.738Z,95200.50
2019-04-14T07:17:56.707Z,95204.59
2019-04-14T07:20:27.686Z,95207.80
2019-04-14T07:22:58.676Z,95199.58
2019-04-14T07:25:29.658Z,95201.68
2019-04-14T07:28:00.649Z,95209.78
2019-04-14T07:31:02.679Z,95206.06
2019-04-14T07:33:52.606Z,95210.24
2019-04-14T07:36:37.945Z,95214.13
2019-04-14T07:39:26.893Z,95209.07
2019-04-14T07:42:06.597Z,95215.12
2019-04-14T07:44:55.370Z,95211.05
2019-04-14T07:47:45.258Z,95206.72
2019-04-14T07:50:25.187Z,95209.30
2019-04-14T07:53:14.753Z,95215.17
2019-04-14T07:56:05.145Z,95207.53
2019-04-14T07:58:48.805Z,95207.19
2019-04-14T08:01:26.480Z,95203.77
2019-04-14T08:04:16.385Z,95196.84
2019-04-14T08:06:51.708Z,95192.27
2019-04-14T08:09:22.691Z,95192.90
2019-04-14T08:11:53.673Z,95192.34
2019-04-14T08:14:24.838Z,95193.14
2019-04-14T08:16:55.916Z,95182.67
2019-04-14T08:19:26.901Z,95198.69
2019-04-14T08:21:58.028Z,95194.31
2019-04-14T08:24:29.022Z,95202.33
2019-04-14T08:26:59.992Z,95187.72
2019-04-14T08:29:30.976Z,95197.88
2019-04-14T08:32:01.995Z,95199.20
2019-04-14T08:34:32.999Z,95189.50
2019-04-14T08:37:04.052Z,95192.70
2019-04-14T08:39:35.203Z,95197.91
2019-04-14T08:42:19.147Z,95195.86
2019-04-14T08:44:51.473Z,95204.33
2019-04-14T08:47:30.894Z,95201.49
2019-04-14T08:50:07.068Z,95201.91
2019-04-14T08:53:03.120Z,95202.61
2019-04-14T08:55:39.859Z,95197.68
2019-04-14T08:58:21.331Z,95200.83
2019-04-14T09:01:01.729Z,95191.91
2019-04-14T09:03:50.479Z,95206.42
2019-04-14T09:06:29.386Z,95198.45
2019-04-14T09:09:19.124Z,95212.34
2019-04-14T09:11:54.204Z,95202.71
2019-04-14T09:14:25.179Z,95203.84
2019-04-14T09:16:56.164Z,95197.16
2019-04-14T09:19:27.128Z,95200.98
2019-04-14T09:21:58.102Z,95196.96
2019-04-14T09:24:29.072Z,95206.53
2019-04-14T09:27:00.064Z,95203.42
2019-04-14T09:29:31.043Z,95199.00
2019-04-14T09:32:02.319Z,95189.70
2019-04-14T09:34:34.301Z,95190.95
2019-04-14T09:37:05.350Z,95186.87
2019-04-14T09:39:36.320Z,95186.08
2019-04-14T09:42:07.314Z,95178.70
2019-04-14T09:44:38.340Z,95182.66
2019-04-14T09:47:09.559Z,95183.31
2019-04-14T09:49:40.533Z,95179.39
2019-04-14T09:52:11.529Z,95183.67
2019-04-14T09:54:42.529Z,95188.15
2019-04-14T09:57:13.523Z,95186.89
2019-04-14T09:59:44.496Z,95191.80
2019-04-14T10:02:15.486Z,95195.27
2019-04-14T10:04:46.460Z,95188.18
2019-04-14T10:07:17.724Z,95185.98
2019-04-14T10:09:48.778Z,95193.58
2019-04-14T10:12:19.880Z,95187.25
2019-04-14T10:14:50.914Z,95187.16
2019-04-14T10:17:21.897Z,95183.60
2019-04-14T10:19:52.901Z,95181.41
2019-04-14T10:22:33.371Z,95173.14
2019-04-14T10:24:57.791Z,95176.28
2019-04-14T10:27:28.772Z,95172.22
2019-04-14T10:29:59.757Z,95180.09
2019-04-14T10:32:30.772Z,95167.39
2019-04-14T10:35:01.737Z,95176.16
2019-04-14T10:37:33.027Z,95185.22
2019-04-14T10:40:06.218Z,95183.95
2019-04-14T10:42:37.353Z,95188.93
2019-04-14T10:45:08.943Z,95190.81
2019-04-14T10:47:39.947Z,95176.11
2019-04-14T10:50:11.379Z,95169.92
2019-04-14T10:52:42.386Z,95173.22
2019-04-14T10:55:13.558Z,95179.03
2019-04-14T10:57:44.541Z,95172.54
2019-04-14T11:00:17.415Z,95179.93
2019-04-14T11:02:48.436Z,95185.83
2019-04-14T11:05:20.791Z,95190.18
2019-04-14T11:07:51.733Z,95183.33
2019-04-14T11:10:22.818Z,95194.33
2019-04-14T11:12:53.893Z,95195.17
2019-04-14T11:15:25.248Z,95203.69
2019-04-14T11:17:56.248Z,95205.95
2019-04-14T11:20:27.264Z,95212.09
2019-04-14T11:23:03.613Z,95211.23
2019-04-14T11:25:30.993Z,95211.83
2019-04-14T11:28:01.987Z,95212.53
2019-04-14T11:30:33.493Z,95218.05
2019-04-14T11:33:19.326Z,95219.52
2019-04-14T11:36:05.434Z,95224.77
2019-04-14T11:38:53.680Z,95217.53
2019-04-14T11:41:24.716Z,95227.64
2019-04-14T11:43:55.742Z,95232.00
2019-04-14T11:46:26.792Z,95228.94
2019-04-14T11:48:57.846Z,95228.42
2019-04-14T11:51:28.919Z,95234.44
2019-04-14T11:53:59.964Z,95233.81
2019-04-14T11:56:30.929Z,95235.99
2019-04-14T11:59:01.988Z,95231.33
2019-04-14T12:01:51.030Z,95239.83
2019-04-14T12:04:53.321Z,95239.81
2019-04-14T12:07:41.390Z,95249.81
2019-04-14T12:10:14.879Z,95247.36
2019-04-14T12:12:45.912Z,95247.84
2019-04-14T12:15:16.981Z,95255.23
2019-04-14T12:17:47.920Z,95248.22
2019-04-14T12:20:18.995Z,95250.70
2019-04-14T12:22:50.003Z,95255.00
2019-04-14T12:25:21.007Z,95263.67
2019-04-14T12:27:52.056Z,95265.87
2019-04-14T12:30:24.394Z,95265.45
2019-04-14T12:32:55.497Z,95262.06
2019-04-14T12:35:26.700Z,95263.67
2019-04-14T12:37:57.746Z,95260.06
2019-04-14T12:40:28.912Z,95255.31
2019-04-14T12:43:18.802Z,95263.05
2019-04-14T12:46:07.794Z,95261.43
2019-04-14T12:48:44.401Z,95264.60
2019-04-14T12:51:20.713Z,95265.05
2019-04-14T12:53:51.717Z,95265.06
2019-04-14T12:56:25.626Z,95272.44
2019-04-14T12:59:18.149Z,95267.97
2019-04-14T13:01:59.635Z,95265.81
2019-04-14T13:04:30.602Z,95267.45
2019-04-14T13:07:01.697Z,95273.56
2019-04-14T13:09:32.786Z,95260.30
2019-04-14T13:12:04.094Z,95264.93
2019-04-14T13:14:36.287Z,95272.13
2019-04-14T13:17:07.420Z,95265.95
2019-04-14T13:19:38.401Z,95269.97
2019-04-14T13:22:09.465Z,95266.73
2019-04-14T13:24:40.524Z,95273.81
2019-04-14T13:27:11.505Z,95271.30
2019-04-14T13:29:42.475Z,95269.39
2019-04-14T13:32:13.553Z,95271.91
2019-04-14T13:34:44.547Z,95270.00
2019-04-14T13:37:15.601Z,95272.32
2019-04-14T13:39:46.566Z,95266.86
2019-04-14T13:42:17.558Z,95270.30
2019-04-14T13:44:48.546Z,95267.37
2019-04-14T13:47:19.534Z,95267.64
2019-04-14T13:49:50.584Z,95269.01
2019-04-14T13:52:21.651Z,95270.89
2019-04-14T13:54:52.720Z,95275.63
2019-04-14T13:57:23.761Z,95266.80
2019-04-14T13:59:54.789Z,95271.84
2019-04-14T14:02:26.940Z,95270.10
2019-04-14T14:04:57.922Z,95276.45
2019-04-14T14:07:28.940Z,95277.45
2019-04-14T14:09:59.924Z,95276.61
2019-04-14T14:12:35.972Z,95275.94
2019-04-14T14:15:34.608Z,95275.36
2019-04-14T14:18:33.715Z,95279.41
2019-04-14T14:21:16.721Z,95277.31
2019-04-14T14:24:04.683Z,95282.37
2019-04-14T14:26:36.726Z,95283.39
2019-04-14T14:29:07.706Z,95287.95
2019-04-14T14:31:38.711Z,95285.86
2019-04-14T14:34:09.778Z,95283.54
2019-04-14T14:36:40.760Z,95296.78
2019-04-14T14:39:13.397Z,95298.84
2019-04-14T14:41:44.362Z,95298.45
2019-04-14T14:44:15.417Z,95297.09
2019-04-14T14:47:03.933Z,95298.38
2019-04-14T14:49:59.481Z,95294.84
2019-04-14T14:52:31.257Z,95301.17
2019-04-14T14:55:02.284Z,95294.23
2019-04-14T14:57:33.251Z,95295.34
2019-04-14T15:00:06.026Z,95299.36
2019-04-14T15:02:37.023Z,95294.84
2019-04-14T15:05:08.387Z,95291.69
2019-04-14T15:07:39.374Z,95297.80
2019-04-14T15:10:10.486Z,95304.05
2019-04-14T15:12:41.487Z,95302.06
2019-04-14T15:15:12.623Z,95307.70
2019-04-14T15:17:43.711Z,95305.53
2019-04-14T15:20:15.016Z,95305.13
2019-04-14T15:22:46.028Z,95314.86
2019-04-14T15:25:17.136Z,95307.28
2019-04-14T15:27:48.191Z,95314.98
2019-04-14T15:30:21.340Z,95313.56
2019-04-14T15:32:52.432Z,95313.96
2019-04-14T15:35:23.565Z,95319.92
2019-04-14T15:37:54.562Z,95314.22
2019-04-14T15:40:25.619Z,95317.79
2019-04-14T15:42:56.619Z,95313.36
2019-04-14T15:45:27.618Z,95317.45
2019-04-14T15:47:58.611Z,95325.05
2019-04-14T15:50:29.585Z,95324.66
2019-04-14T15:53:00.570Z,95318.82
2019-04-14T15:55:31.537Z,95324.41
2019-04-14T15:58:24.521Z,95330.70
2019-04-14T16:01:13.558Z,95332.47
2019-04-14T16:03:52.512Z,95332.58
2019-04-14T16:06:45.656Z,95332.78
2019-04-14T16:09:38.256Z,95331.45
2019-04-14T16:12:28.230Z,95331.05
2019-04-14T16:15:08.481Z,95337.25
2019-04-14T16:18:07.359Z,95345.19
2019-04-14T16:20:40.157Z,95343.81
2019-04-14T16:23:11.167Z,95342.12
2019-04-14T16:26:05.566Z,95345.30
2019-04-14T16:28:45.524Z,95352.09
2019-04-14T16:31:33.902Z,95351.22
2019-04-14T16:34:13.935Z,95360.54
2019-04-14T16:36:45.579Z,95356.25
2019-04-14T16:39:16.623Z,95359.10
2019-04-14T16:41:47.838Z,95359.20
2019-04-14T16:44:19.117Z,95361.13
2019-04-14T16:46:50.239Z,95361.08
2019-04-14T16:49:21.225Z,95359.27
2019-04-14T16:51:58.747Z,95361.39
2019-04-14T16:54:54.579Z,95363.41
2019-04-14T16:57:44.472Z,95366.24
2019-04-14T17:00:23.465Z,95371.03
2019-04-14T17:02:54.628Z,95377.09
2019-04-14T17:05:25.700Z,95382.05
2019-04-14T17:07:56.669Z,95389.92
2019-04-14T17:10:28.847Z,95389.92
2019-04-14T17:12:59.978Z,95386.91
2019-04-14T17:15:48.158Z,95389.97
2019-04-14T17:18:50.367Z,95388.20
2019-04-14T17:21:52.563Z,95386.67
2019-04-14T17:24:36.504Z,95387.77
2019-04-14T17:27:35.536Z,95389.64
2019-04-14T17:30:26.758Z,95399.96
2019-04-14T17:33:11.463Z,95395.61
2019-04-14T17:36:01.366Z,95399.50
2019-04-14T17:38:51.740Z,95415.30
2019-04-14T17:41:47.644Z,95426.09
2019-04-14T17:44:26.212Z,95419.03
2019-04-14T17:47:06.565Z,95436.66
2019-04-14T17:49:56.701Z,95428.52
2019-04-14T17:52:46.617Z,95436.01
2019-04-14T17:55:34.983Z,95437.19
2019-04-14T17:58:19.959Z,95444.61
2019-04-14T18:01:15.890Z,95446.22
2019-04-14T18:03:52.024Z,95452.02
2019-04-14T18:06:26.379Z,95454.71
2019-04-14T18:09:19.115Z,95460.20
2019-04-14T18:11:56.289Z,95468.33
2019-04-14T18:14:35.291Z,95471.33
2019-04-14T18:17:11.841Z,95471.06
2019-04-14T18:20:02.360Z,95481.73
2019-04-14T18:22:33.411Z,95483.63
2019-04-14T18:25:05.374Z,95489.00
2019-04-14T18:27:45.494Z,95497.23
2019-04-14T18:30:21.339Z,95500.12
2019-04-14T18:33:11.252Z,95507.48
2019-04-14T18:35:53.682Z,95513.00
2019-04-14T18:38:44.584Z,95516.77
2019-04-14T18:41:29.240Z,95523.50
2019-04-14T18:44:23.941Z,95528.20
2019-04-14T18:47:32.222Z,95530.79
2019-04-14T18:50:12.822Z,95529.63
2019-04-14T18:53:02.729Z,95530.88
2019-04-14T18:55:48.244Z,95545.06
2019-04-14T18:58:41.104Z,95545.53
2019-04-14T19:01:15.648Z,95546.70
2019-04-14T19:03:46.864Z,95551.95
2019-04-14T19:06:17.934Z,95555.70
2019-04-14T19:08:50.454Z,95552.31
2019-04-14T19:11:49.045Z,95558.27
2019-04-14T19:14:35.180Z,95564.59
2019-04-14T19:17:25.717Z,95567.64
2019-04-14T19:20:01.834Z,95563.01
2019-04-14T19:22:29.401Z,95573.08
2019-04-14T19:25:08.110Z,95571.56
2019-04-14T19:27:33.239Z,95571.03
2019-04-14T19:30:05.126Z,95573.68
2019-04-14T19:32:36.112Z,95578.66
2019-04-14T19:35:07.469Z,95576.78
2019-04-14T19:37:38.804Z,95578.33
2019-04-14T19:40:10.428Z,95583.85
2019-04-14T19:42:41.401Z,95584.90
2019-04-14T19:45:14.426Z,95584.10
2019-04-14T19:47:45.698Z,95595.64
2019-04-14T19:50:16.839Z,95594.98
2019-04-14T19:52:47.904Z,95591.25
2019-04-14T19:55:20.538Z,95598.17
2019-04-14T19:57:51.642Z,95599.09
2019-04-14T20:00:22.800Z,95601.44
2019-04-14T20:02:53.782Z,95598.01
2019-04-14T20:05:24.888Z,95603.37
2019-04-14T20:07:55.865Z,95606.22
2019-04-14T20:10:26.917Z,95607.52
2019-04-14T20:12:58.386Z,95609.86
2019-04-14T20:15:33.636Z,95608.31
2019-04-14T20:18:22.495Z,95611.30
2019-04-14T20:21:16.001Z,95614.42
2019-04-14T20:23:55.299Z,95619.34
2019-04-14T20:26:42.084Z,95614.92
2019-04-14T20:29:34.705Z,95614.27
2019-04-14T20:32:24.886Z,95618.66
2019-04-14T20:34:55.975Z,95619.37
2019-04-14T20:37:26.953Z,95625.73
2019-04-14T20:39:58.013Z,95625.48
2019-04-14T20:42:29.009Z,95621.69
2019-04-14T20:45:00.351Z,95622.96
2019-04-14T20:47:31.326Z,95626.07
2019-04-14T20:50:02.310Z,95626.05
2019-04-14T20:52:33.658Z,95629.69
2019-04-14T20:55:07.171Z,95630.88
2019-04-14T20:57:38.216Z,95631.58
2019-04-14T21:00:10.039Z,95632.05
2019-04-14T21:03:00.545Z,95639.50
2019-04-14T21:05:56.211Z,95635.11
2019-04-14T21:08:55.292Z,95638.23
2019-04-14T21:11:29.671Z,95644.72
2019-04-14T21:14:31.885Z,95637.39
2019-04-14T21:17:10.950Z,95645.64
2019-04-14T21:20:09.954Z,95644.13
2019-04-14T21:22:49.303Z,95653.06
2019-04-14T21:25:33.637Z,95653.30
2019-04-14T21:28:19.129Z,95655.34
2019-04-14T21:31:08.074Z,95647.89
2019-04-14T21:34:07.275Z,95653.77
2019-04-14T21:36:50.747Z,95652.39
2019-04-14T21:39:58.999Z,95662.28
2019-04-14T21:42:29.995Z,95656.50
2019-04-14T21:45:00.966Z,95659.33
2019-04-14T21:47:31.965Z,95662.52
2019-04-14T21:50:03.082Z,95667.11
2019-04-14T21:52:42.007Z,95669.22
2019-04-14T21:55:13.519Z,95669.91
2019-04-14T21:57:59.242Z,95674.30
2019-04-14T22:01:34.368Z,95674.88
2019-04-14T22:04:29.744Z,95679.24
2019-04-14T22:07:11.932Z,95683.97
2019-04-14T22:09:42.939Z,95684.66
2019-04-14T22:12:14.022Z,95678.39
2019-04-14T22:14:45.165Z,95685.47
2019-04-14T22:17:16.166Z,95690.66
2019-04-14T22:19:47.238Z,95694.43
2019-04-14T22:22:18.551Z,95691.14
2019-04-14T22:24:49.616Z,95695.73
2019-04-14T22:27:20.591Z,95704.05
2019-04-14T22:29:51.651Z,95700.68
2019-04-14T22:32:22.741Z,95698.83
2019-04-14T22:34:53.740Z,95694.08
2019-04-14T22:37:24.711Z,95694.70
2019-04-14T22:39:55.783Z,95700.19
2019-04-14T22:42:26.778Z,95696.80
2019-04-14T22:44:57.753Z,95703.15
2019-04-14T22:47:28.729Z,95705.86
2019-04-14T22:49:59.714Z,95707.16
2019-04-14T22:52:30.682Z,95711.01
2019-04-14T22:55:01.748Z,95710.09
2019-04-14T22:57:32.874Z,95712.88
2019-04-14T23:00:05.443Z,95717.94
2019-04-14T23:03:06.597Z,95717.37
2019-04-14T23:05:47.464Z,95722.19
2019-04-14T23:08:40.716Z,95720.48
2019-04-14T23:11:27.057Z,95728.83
2019-04-14T23:14:20.443Z,95720.92
2019-04-14T23:17:11.227Z,95725.64
2019-04-14T23:20:05.370Z,95728.69
2019-04-14T23:22:46.944Z,95727.75
2019-04-14T23:25:18.059Z,95731.29
2019-04-14T23:27:50.139Z,95728.57
2019-04-14T23:30:21.197Z,95735.66
2019-04-14T23:32:52.261Z,95733.03
2019-04-14T23:35:23.325Z,95734.83
2019-04-14T23:37:54.296Z,95737.42
2019-04-14T23:40:25.348Z,95740.48
2019-04-14T23:42:56.337Z,95746.10
2019-04-14T23:45:27.392Z,95745.69
2019-04-14T23:47:59.437Z,95742.98
2019-04-14T23:50:30.512Z,95743.72
2019-04-14T23:53:01.497Z,95741.37
2019-04-14T23:55:32.553Z,95740.92
2019-04-14T23:58:03.596Z,95740.80
